logo
Rechercher aéroport 
image banner adimage banner adimage banner ad
image banner ad

EPCE - Cewice

Situé à Cewice, Poland

ICAO - EPCE, IATA -

Données fournies par Airmate  

Information générale

Coordonnées: N54°24'58" E17°45'48"
Élévation : 505 feet MSL.
Variation magnétique : 6.0000° East
Voir autres Aéroports à Pomerania

Données opérationnelles

Special qualification required
Heure actuelle UTC:
Heure actuelle locale:
Météo
TAF: TAF EPCE 231100Z 2312/2324 22010KT 9999 SCT035 BECMG 2316/2318 15006KT PROB30 TEMPO 2322/2324 5000 BR BKN010
Voir NOTAMs / SUP AIP / TFR affectant cet aéroport [VIEW]
Fréquences de communication: [VIEW]

Pistes:

Identifiant RWYQFULongueur (ft)Largeur (ft)SurfaceLDA (ft)
0776°8261197CONC+ASPH8261
25256°8261197CONC+ASPH8261

Coordonnées de l'aéroport

Adresse: Cewice Poland

Vue satellite de EPCE